Flight Track Log - Related Links

Times and Time Zones

All times are in EDT time to prevent confusion due to time zone crossing. See the UAL80 flight status page for this flight to view local times or setup timezone preferences in your user account.

Time Position Orientation Groundspeed Altitude Reporting Facility
EDT Latitude Longitude Course Direction KTS MPH feet Rate Location/Type
Thu 05:17:41 PM 40.6626 -74.1827 90° East 167 192 1,100  Level FlightAware ADS-B
Thu 05:18:02 PM 40.6456 -74.1829 181° South 188 216 1,600 1,714 Climbing FlightAware ADS-B
Thu 05:18:09 PM 40.6401 -74.1866 207° Southwest 189 217 1,900 2,182 Climbing FlightAware ADS-B
Thu 05:18:13 PM 40.6371 -74.1895 216° Southwest 198 228 2,000 2,750 Climbing FlightAware ADS-B
Thu 05:18:57 PM 40.6011 -74.2229 215° Southwest 221 254 4,100 3,049 Climbing FlightAware ADS-B
Thu 05:19:14 PM 40.5872 -74.2354 214° Southwest 217 250 5,100 2,824 Climbing FlightAware ADS-B
Thu 05:19:31 PM 40.5725 -74.2491 215° Southwest 223 257 5,700 792 Climbing FlightAware ADS-B
Thu 05:20:07 PM 40.5359 -74.2703 204° Southwest 254 292 5,800 140 Climbing FlightAware ADS-B
Thu 05:20:14 PM 40.5275 -74.2685 171° South 259 298 5,800  Level FlightAware ADS-B
Thu 05:20:17 PM 40.5248 -74.2674 163° South 242 278 5,800  Level FlightAware ADS-B
Thu 05:20:23 PM 40.5180 -74.2641 160° South 261 300 5,800  Level FlightAware ADS-B
Thu 05:20:41 PM 40.4979 -74.2528 157° South 261 300 5,800  Level FlightAware ADS-B
Thu 05:20:50 PM 40.4873 -74.2467 156° South 260 299 5,800  Level FlightAware ADS-B
Thu 05:20:56 PM 40.4810 -74.2433 158° South 260 299 5,800  Level FlightAware ADS-B
Thu 05:21:03 PM 40.4730 -74.2391 158° South 259 298 5,800  Level FlightAware ADS-B
Thu 05:21:19 PM 40.4556 -74.2304 159° South 257 296 5,800  Level FlightAware ADS-B
Thu 05:21:42 PM 40.4293 -74.2176 160° South 257 296 5,800  Level FlightAware ADS-B
Thu 05:22:01 PM 40.4087 -74.2074 159° South 259 298 5,800  Level FlightAware ADS-B
Thu 05:22:12 PM 40.3961 -74.2014 160° South 255 293 5,800  Level FlightAware ADS-B
Thu 05:22:21 PM 40.3862 -74.1982 166° South 252 290 5,800  Level FlightAware ADS-B
Thu 05:22:28 PM 40.3783 -74.1970 173° South 251 289 5,800  Level FlightAware ADS-B
Thu 05:22:33 PM 40.3725 -74.1967 178° South 250 288 5,800  Level FlightAware ADS-B
Thu 05:22:41 PM 40.3623 -74.1971 182° South 250 288 5,800  Level FlightAware ADS-B
Thu 05:22:45 PM 40.3579 -74.1978 187° South 250 288 5,800 571 Level FlightAware ADS-B
Thu 05:23:02 PM 40.3386 -74.2008 187° South 250 288 6,000 909 Climbing FlightAware ADS-B
Thu 05:23:18 PM 40.3206 -74.2036 187° South 253 291 6,300 1,935 Climbing FlightAware ADS-B
Thu 05:23:33 PM 40.3029 -74.2062 186° South 256 295 7,000 2,824 Climbing FlightAware ADS-B
Thu 05:23:52 PM 40.2803 -74.2097 187° South 262 302 7,900 3,000 Climbing FlightAware ADS-B
Thu 05:24:07 PM 40.2611 -74.2126 187° South 269 310 8,700 3,188 Climbing FlightAware ADS-B
Thu 05:24:24 PM 40.2404 -74.2157 187° South 273 314 9,600 2,375 Climbing FlightAware ADS-B
Thu 05:24:55 PM 40.2000 -74.2221 187° South 298 343 10,600 1,524 Climbing FlightAware ADS-B
Thu 05:25:27 PM 40.1520 -74.2296 187° South 344 396 11,200 1,905 Climbing FlightAware ADS-B
Thu 05:25:58 PM 40.1024 -74.2369 186° South 354 407 12,600 2,690 Climbing FlightAware ADS-B
Thu 05:26:25 PM 40.0578 -74.2475 190° South 359 413 13,800 2,625 Climbing FlightAware ADS-B
Thu 05:26:30 PM 40.0502 -74.2523 206° Southwest 357 411 14,000 2,571 Climbing FlightAware ADS-B
Thu 05:26:39 PM 40.0386 -74.2621 213° Southwest 359 413 14,400 2,634 Climbing FlightAware ADS-B
Thu 05:27:11 PM 39.9987 -74.3086 222° Southwest 363 418 15,800 2,647 Climbing FlightAware ADS-B
Thu 05:27:47 PM 39.9529 -74.3616 222° Southwest 369 425 17,400 2,507 Climbing FlightAware ADS-B
Thu 05:28:18 PM 39.9125 -74.4080 221° Southwest 377 434 18,600 2,190 Climbing FlightAware ADS-B
Thu 05:28:50 PM 39.8699 -74.4567 221° Southwest 385 443 19,700 2,063 Climbing FlightAware ADS-B
Thu 05:29:22 PM 39.8310 -74.5020 222° Southwest 388 447 20,800 2,372 Climbing FlightAware ADS-B
Thu 05:29:33 PM 39.8127 -74.5226 221° Southwest 388 447 21,400 2,372 Climbing FlightAware ADS-B
Thu 05:30:05 PM 39.7700 -74.5724 222° Southwest 392 451 22,500 1,839 Climbing FlightAware ADS-B
Thu 05:30:35 PM 39.7287 -74.6203 222° Southwest 397 457 23,300 1,594 Climbing FlightAware ADS-B
Thu 05:31:09 PM 39.6824 -74.6738 222° Southwest 402 463 24,200 1,807 Climbing FlightAware ADS-B
Thu 05:31:58 PM 39.6135 -74.7531 222° Southwest 403 464 25,800 1,950 Climbing FlightAware ADS-B
Thu 05:32:29 PM 39.5705 -74.8025 222° Southwest 399 459 26,800 1,742 Climbing FlightAware ADS-B
Thu 05:33:00 PM 39.5279 -74.8513 221° Southwest 399 459 27,600 1,143 Climbing FlightAware ADS-B
Thu 05:33:32 PM 39.4830 -74.9029 222° Southwest 402 463 28,000 387 Climbing FlightAware ADS-B
Thu 05:34:02 PM 39.4412 -74.9507 221° Southwest 402 463 28,000  Level FlightAware ADS-B
Thu 05:34:34 PM 39.3979 -75.0001 221° Southwest 402 463 28,000 581 Level FlightAware ADS-B
Thu 05:35:04 PM 39.3552 -75.0488 221° Southwest 402 463 28,600 1,500 Climbing FlightAware ADS-B
Thu 05:35:26 PM 39.3252 -75.0828 221° Southwest 398 458 29,300 1,920 Climbing FlightAware ADS-B
Thu 05:35:29 PM 39.3197 -75.0883 218° Southwest 400 460 29,400 1,846 Climbing FlightAware ADS-B
Thu 05:35:39 PM 39.3050 -75.1013 214° Southwest 402 463 29,700 2,000 Climbing FlightAware ADS-B
Thu 05:35:44 PM 39.2970 -75.1074 211° Southwest 403 464 29,900 2,250 Climbing FlightAware ADS-B
Thu 05:35:47 PM 39.2920 -75.1108 208° Southwest 405 466 30,000 1,636 Climbing FlightAware ADS-B
Thu 05:36:17 PM 39.2388 -75.1368 201° Southwest 412 474 30,800 1,700 Climbing FlightAware ADS-B
Thu 05:36:47 PM 39.1848 -75.1596 198° South 406 467 31,700 1,770 Climbing FlightAware ADS-B
Thu 05:37:18 PM 39.1302 -75.1827 198° South 400 460 32,600 1,875 Climbing FlightAware ADS-B
Thu 05:37:51 PM 39.0740 -75.2064 198° South 388 447 33,700 1,135 Climbing FlightAware ADS-B
Thu 05:38:32 PM 39.0049 -75.2356 198° South 385 443 34,000 254 Climbing FlightAware ADS-B
Thu 05:39:02 PM 38.9539 -75.2571 198° South 385 443 34,000 1,107 Level FlightAware ADS-B
Thu 05:40:15 PM 38.8330 -75.3077 198° South 382 440 35,900 1,165 Climbing FlightAware ADS-B
Thu 05:40:45 PM 38.7843 -75.3282 198° South 366 421 36,000 98 Climbing FlightAware ADS-B
Thu 05:41:16 PM 38.7350 -75.3489 198° South 366 421 36,000  Level FlightAware ADS-B
Thu 05:41:46 PM 38.6863 -75.3691 198° South 367 422 36,000  Level FlightAware ADS-B
Thu 05:42:18 PM 38.6352 -75.3903 198° South 367 422 36,000  Level FlightAware ADS-B
Thu 05:43:04 PM 38.5591 -75.4220 198° South 369 425 36,000  Level FlightAware ADS-B
Thu 05:43:37 PM 38.5059 -75.4440 198° South 370 426 36,000  Level FlightAware ADS-B
Thu 05:44:09 PM 38.4533 -75.4660 198° South 372 428 36,000  Level FlightAware ADS-B
Thu 05:44:40 PM 38.4025 -75.4867 198° South 373 429 36,000  Level FlightAware ADS-B
Thu 05:45:12 PM 38.3510 -75.5074 197° South 373 429 36,000  Level FlightAware ADS-B
Thu 05:46:07 PM 38.2599 -75.5441 198° South 374 430 36,000  Level FlightAware ADS-B
Thu 05:46:40 PM 38.2057 -75.5662 198° South 375 432 36,000  Level FlightAware ADS-B
Thu 05:47:11 PM 38.1539 -75.5874 198° South 377 434 36,000  Level FlightAware ADS-B
Thu 05:47:46 PM 38.0957 -75.6108 198° South 379 436 36,000  Level FlightAware ADS-B
Thu 05:48:27 PM 38.0450 -75.6360 201° Southwest 366 421 36,000  Level FlightAware ADS-B
Thu 05:49:12 PM 37.9670 -75.6790 203° Southwest 372 428 36,000  Level FlightAware ADS-B
Thu 05:49:55 PM 37.8907 -75.7216 204° Southwest 371 427 36,000  Level FlightAware ADS-B
Thu 05:50:30 PM 37.8365 -75.7513 203° Southwest 370 426 36,000  Level FlightAware ADS-B
Thu 05:51:22 PM 37.7690 -75.7880 203° Southwest 370 426 36,000  Level FlightAware ADS-B
Thu 05:52:02 PM 37.7070 -75.8220 203° Southwest 369 425 36,000  Level FlightAware ADS-B
Thu 05:52:42 PM 37.6380 -75.8590 203° Southwest 367 422 36,000  Level FlightAware ADS-B
Thu 05:53:22 PM 37.5820 -75.8900 204° Southwest 366 421 36,000  Level FlightAware ADS-B
Thu 05:54:02 PM 37.5160 -75.9250 203° Southwest 367 422 36,000  Level FlightAware ADS-B
Thu 05:54:37 PM 37.4640 -75.9530 203° Southwest 367 422 36,000  Level FlightAware ADS-B
Thu 05:55:17 PM 37.3940 -75.9910 203° Southwest 369 425 36,000  Level FlightAware ADS-B
Thu 05:55:34 PM 37.3601 -76.0094 203° Southwest 369 425 36,000  Level FlightAware ADS-B
Thu 05:56:42 PM 37.2650 -76.0600 203° Southwest 368 423 36,000  Level FlightAware ADS-B
Thu 05:57:03 PM 37.2207 -76.0842 204° Southwest 367 422 36,000  Level FlightAware ADS-B
Thu 05:58:02 PM 37.1350 -76.1300 203° Southwest 366 421 36,000  Level FlightAware ADS-B
Thu 05:59:02 PM 37.0440 -76.1790 203° Southwest 366 421 36,000  Level FlightAware ADS-B
Thu 05:59:37 PM 37.0010 -76.2010 202° Southwest 365 420 36,000  Level FlightAware ADS-B
Thu 06:00:22 PM 36.9330 -76.2370 203° Southwest 363 418 36,000  Level FlightAware ADS-B
Thu 06:01:07 PM 36.8530 -76.2800 203° Southwest 363 418 36,000  Level FlightAware ADS-B
Thu 06:01:47 PM 36.7980 -76.3090 203° Southwest 363 418 36,000  Level FlightAware ADS-B
Thu 06:02:27 PM 36.7460 -76.3370 203° Southwest 363 418 36,000  Level FlightAware ADS-B
Thu 06:03:07 PM 36.6930 -76.3650 203° Southwest 363 418 36,000  Level FlightAware ADS-B
Thu 06:03:47 PM 36.6410 -76.3930 203° Southwest 363 418 36,000  Level FlightAware ADS-B
Thu 06:04:37 PM 36.5750 -76.4270 202° Southwest 363 418 36,000  Level FlightAware ADS-B
Thu 06:05:17 PM 36.5220 -76.4550 203° Southwest 363 418 36,000  Level FlightAware ADS-B
Thu 06:05:57 PM 36.4700 -76.4830 203° Southwest 363 418 36,000  Level FlightAware ADS-B
Thu 06:06:47 PM 36.4040 -76.5170 203° Southwest 363 418 36,000  Level FlightAware ADS-B
Thu 06:07:27 PM 36.3520 -76.5450 203° Southwest 363 418 36,000  Level FlightAware ADS-B
Thu 06:08:07 PM 36.2990 -76.5730 203° Southwest 363 418 36,000  Level FlightAware ADS-B
Thu 06:08:47 PM 36.2460 -76.6010 203° Southwest 363 418 36,000  Level FlightAware ADS-B
Thu 06:09:27 PM 36.1940 -76.6280 203° Southwest 363 418 36,000  Level FlightAware ADS-B
Thu 06:10:07 PM 36.1410 -76.6560 203° Southwest 363 418 36,000  Level FlightAware ADS-B
Thu 06:10:57 PM 36.0760 -76.6900 203° Southwest 363 418 36,000  Level FlightAware ADS-B
Thu 06:11:58 PM 35.8253 -76.7167 203° Southwest 368 423 36,000  Level Washington Center
Thu 06:12:58 PM 35.7289 -76.7561 198° South 368 423 36,000 -50 Level Washington Center
Thu 06:13:58 PM 35.6347 -76.7931 198° South 368 423 35,900  Descending Washington Center
Thu 06:14:58 PM 35.5361 -76.8350 199° South 356 410 36,000 50 Climbing Washington Center
Thu 06:15:58 PM 35.4397 -76.8719 197° South 356 410 36,000  Level Washington Center
Thu 06:16:57 PM 35.3456 -76.9086 198° South 362 417 36,000  Level Washington Center
Thu 06:17:58 PM 35.2511 -76.9478 199° South 362 417 36,000  Level Washington Center
Thu 06:18:57 PM 35.1569 -76.9842 198° South 367 422 36,000 -50 Level Washington Center
Thu 06:19:57 PM 35.0606 -77.0231 198° South 367 422 35,900  Descending Washington Center
Thu 06:20:57 PM 34.9661 -77.0647 200° South 367 422 36,000 50 Climbing Washington Center
Thu 06:21:58 PM 34.8697 -77.1033 198° South 367 422 36,000  Level Washington Center
Thu 06:22:58 PM 34.7753 -77.1394 197° South 367 422 36,000  Level Washington Center
Thu 06:23:58 PM 34.6831 -77.1781 199° South 367 422 36,000 -50 Level Washington Center
Thu 06:24:58 PM 34.5864 -77.2142 197° South 367 422 35,900  Descending Washington Center
Thu 06:25:58 PM 34.4919 -77.2500 197° South 367 422 36,000 50 Climbing Washington Center
Thu 06:26:58 PM 34.3978 -77.2858 197° South 367 422 36,000 -29 Level Washington Center
Thu 06:29:28 PM 34.1664 -77.3739 197° South 363 418 35,900 -29 Descending Jacksonville Center
Thu 06:30:28 PM 34.0681 -77.4153 199° South 363 418 35,900  Level Jacksonville Center
Thu 06:31:28 PM 33.9714 -77.4514 197° South 368 423 35,900 50 Level Jacksonville Center
Thu 06:32:28 PM 33.8708 -77.4903 198° South 373 429 36,000 50 Climbing Jacksonville Center
Thu 06:33:28 PM 33.7622 -77.5319 198° South 379 436 36,000  Level Jacksonville Center
Thu 06:34:28 PM 33.6636 -77.5678 197° South 379 436 36,000 -50 Level Jacksonville Center
Thu 06:35:28 PM 33.5631 -77.6086 199° South 379 436 35,900 -50 Descending Jacksonville Center
Thu 06:36:28 PM 33.4622 -77.6447 197° South 379 436 35,900  Level Jacksonville Center
Thu 06:37:28 PM 33.3678 -77.6825 198° South 379 436 35,900  Level Jacksonville Center
Thu 06:38:28 PM 33.2714 -77.7206 198° South 379 436 35,900  Level Jacksonville Center
Thu 06:39:28 PM 33.1747 -77.7558 197° South 374 430 35,900  Level Jacksonville Center
Thu 06:40:28 PM 33.0761 -77.7936 198° South 374 430 35,900 50 Level Jacksonville Center
Thu 06:41:28 PM 32.9794 -77.8314 198° South 374 430 36,000 50 Climbing Jacksonville Center
Thu 06:42:28 PM 32.8808 -77.8667 197° South 379 436 36,000  Level Jacksonville Center
Thu 06:43:28 PM 32.7819 -77.9042 198° South 379 436 36,000  Level Jacksonville Center
Thu 06:44:28 PM 32.6833 -77.9417 198° South 379 436 36,000  Level Jacksonville Center
Thu 06:45:28 PM 32.5847 -77.9817 199° South 379 436 36,000 -50 Level Jacksonville Center
Thu 06:46:28 PM 32.4878 -78.0114 195° South 374 430 35,900  Descending Jacksonville Center
Thu 06:47:28 PM 32.3911 -78.0461 197° South 374 430 36,000  Climbing Jacksonville Center
Thu 06:48:28 PM 32.2967 -78.0856 199° South 374 430 35,900  Descending Jacksonville Center
Thu 06:49:28 PM 32.1978 -78.1253 199° South 374 430 36,000 50 Climbing Jacksonville Center
Thu 06:50:28 PM 32.0989 -78.1597 196° South 374 430 36,000  Level Jacksonville Center
Thu 06:51:28 PM 32.0003 -78.1967 198° South 374 430 36,000  Level Jacksonville Center
Thu 06:52:28 PM 31.8992 -78.2336 197° South 379 436 36,000  Level Jacksonville Center
Thu 06:53:28 PM 31.8089 -78.2725 200° South 384 442 36,000  Level Jacksonville Center
Thu 06:54:28 PM 31.7097 -78.3042 195° South 377 434 36,000 -50 Level Jacksonville Center
Thu 06:55:28 PM 31.6111 -78.3456 200° South 377 434 35,900 -50 Descending Jacksonville Center
Thu 06:56:28 PM 31.5100 -78.3822 197° South 377 434 35,900 50 Level Jacksonville Center
Thu 06:57:28 PM 31.4111 -78.4139 195° South 377 434 36,000 50 Climbing Jacksonville Center
Thu 06:58:28 PM 31.3100 -78.4528 198° South 377 434 36,000  Level Jacksonville Center
Thu 06:59:28 PM 31.2092 -78.4892 197° South 377 434 36,000  Level Jacksonville Center
Thu 07:00:28 PM 31.1083 -78.5303 199° South 382 440 36,000  Level Jacksonville Center
Thu 07:01:28 PM 31.0050 -78.5617 195° South 377 434 36,000  Level Jacksonville Center
Thu 07:02:28 PM 30.9000 -78.6028 199° South 379 436 36,000  Level Jacksonville Center
Thu 07:03:28 PM 30.8008 -78.6386 197° South 370 426 36,000  Level Jacksonville Center
Thu 07:04:28 PM 30.7019 -78.6744 197° South 380 437 36,000  Level Jacksonville Center
Thu 07:05:28 PM 30.5944 -78.7058 194° South 388 447 36,000  Level Jacksonville Center
Thu 07:06:07 PM 30.5225 -78.7117 184° South 380 437 36,000 -61 Level Miami Center
Thu 07:07:07 PM 30.4328 -78.7319 191° South 395 455 35,900  Descending Miami Center
Thu 07:08:07 PM 30.3283 -78.7517 189° South 401 461 36,000 50 Climbing Miami Center
Thu 07:09:07 PM 30.2175 -78.7689 188° South 396 456 36,000  Level Miami Center
Thu 07:10:07 PM 30.1108 -78.7886 189° South 390 449 36,000  Level Miami Center
Thu 07:11:07 PM 30.0000 -78.8178 193° South 385 443 36,000  Level Miami Center
Thu 07:12:07 PM 29.8936 -78.8325 187° South 385 443 36,000  Level Miami Center
Thu 07:13:07 PM 29.7953 -78.8547 191° South 385 443 36,000  Level Miami Center
Thu 07:14:07 PM 29.6825 -78.8622 183° South 385 443 36,000  Level Miami Center
Thu 07:15:07 PM 29.5800 -78.8794 188° South 388 447 36,000  Level Miami Center
Thu 07:16:07 PM 29.4694 -78.8892 184° South 388 447 36,000 -50 Level Miami Center
Thu 07:17:07 PM 29.3669 -78.9064 188° South 388 447 35,900  Descending Miami Center
Thu 07:18:07 PM 29.2583 -78.9186 186° South 388 447 36,000 50 Climbing Miami Center
Thu 07:19:07 PM 29.1475 -78.9308 186° South 388 447 36,000 -50 Level Miami Center
Thu 07:20:07 PM 29.0367 -78.9453 186° South 396 456 35,900  Descending Miami Center
Thu 07:21:07 PM 28.9342 -78.9622 188° South 396 456 36,000 50 Climbing Miami Center
Thu 07:22:07 PM 28.8236 -78.9744 188° South 391 450 36,000  Level Miami Center
Thu 07:23:07 PM 28.7128 -78.9867 187° South 391 450 36,000  Level Miami Center
Thu 07:24:42 PM 28.5430 -79.0100 186° South 36,000  Level FlightAware ADS-B
Thu 07:25:57 PM 28.4120 -79.0300 188° South 36,000  Level FlightAware ADS-B
Thu 07:26:42 PM 28.3320 -79.0420 188° South 387 445 36,000  Level FlightAware ADS-B
Thu 07:27:17 PM 28.2770 -79.0490 186° South 387 445 36,000  Level FlightAware ADS-B
Thu 07:28:07 PM 28.1790 -79.0630 187° South 388 447 36,000  Level FlightAware ADS-B
Thu 07:29:17 PM 28.0550 -79.0800 187° South 388 447 36,000  Level FlightAware ADS-B
Thu 07:30:12 PM 27.9580 -79.0930 187° South 387 445 36,000  Level FlightAware ADS-B
Thu 07:30:47 PM 27.8980 -79.1130 196° South 371 427 36,000  Level FlightAware ADS-B
Thu 07:31:37 PM 27.8410 -79.1830 227° Southwest 364 419 36,000  Level FlightAware ADS-B
Thu 07:32:47 PM 27.7720 -79.2920 234° Southwest 365 420 36,000  Level FlightAware ADS-B
Thu 07:33:57 PM 27.7030 -79.3990 234° Southwest 365 420 36,000  Level FlightAware ADS-B
Thu 07:34:07 PM 27.6956 -79.4156 325° Northwest 366 421 36,000  Level Miami Center
Thu 07:35:07 PM 27.6320 -79.5080 234° Southwest 362 417 36,000  Level FlightAware ADS-B
Thu 07:35:57 PM 27.6000 -79.5940 247° West 372 428 36,000  Level FlightAware ADS-B
Thu 07:36:32 PM 27.6110 -79.6620 280° West 387 445 36,000  Level FlightAware ADS-B
Thu 07:37:12 PM 27.6590 -79.7280 309° West 424 488 36,000  Level FlightAware ADS-B
Thu 07:37:57 PM 27.7330 -79.7860 325° Northwest 426 490 36,000  Level FlightAware ADS-B
Thu 07:38:37 PM 27.7960 -79.8350 325° Northwest 419 482 36,000  Level FlightAware ADS-B
Thu 07:39:12 PM 27.8520 -79.8810 324° Northwest 419 482 36,000  Level FlightAware ADS-B
Thu 07:39:32 PM 27.8780 -79.9120 313° West 398 458 36,000  Level FlightAware ADS-B
Thu 07:40:02 PM 27.8900 -79.9660 284° West 375 432 36,000  Level FlightAware ADS-B
Thu 07:40:37 PM 27.8900 -80.0270 270° West 375 432 36,000  Level FlightAware ADS-B
Thu 07:40:57 PM 27.8610 -80.0590 224° Southwest 335 386 36,000  Level FlightAware ADS-B
Thu 07:41:37 PM 27.8330 -80.1260 245° Southwest 329 379 36,000  Level FlightAware ADS-B
Thu 07:42:37 PM 27.7950 -80.2150 244° Southwest 336 387 36,000  Level FlightAware ADS-B
Thu 07:43:17 PM 27.7720 -80.2680 244° Southwest 336 387 36,000 -375 Level FlightAware ADS-B
Thu 07:43:57 PM 27.7410 -80.3430 245° Southwest 337 388 35,500 -540 Descending FlightAware ADS-B
Thu 07:44:57 PM 27.7040 -80.4300 244° Southwest 337 388 35,100 -240 Descending FlightAware ADS-B
Thu 07:45:37 PM 27.6810 -80.4840 244° Southwest 337 388 35,100  Level FlightAware ADS-B
Thu 07:46:17 PM 27.6580 -80.5370 244° Southwest 337 388 35,100  Level FlightAware ADS-B
Thu 07:46:57 PM 27.6340 -80.5910 243° Southwest 337 388 35,100 -120 Level FlightAware ADS-B
Thu 07:47:07 PM 27.8981 -80.5642 244° Southwest 307 353 35,000 -171 Descending Miami Center
Thu 07:48:07 PM 28.0058 -80.5114 245° Southwest 322 371 34,900  Descending Miami Center
Thu 07:49:47 PM 27.9560 -80.3290 36° Northeast 35,000 50 Climbing FlightAware ADS-B
Thu 07:50:07 PM 27.9190 -80.3220 171° South 356 410 35,000  Level FlightAware ADS-B
Thu 07:50:32 PM 27.8790 -80.3310 191° South 331 381 35,000  Level FlightAware ADS-B
Thu 07:51:07 PM 27.8390 -80.3540 207° Southwest 328 377 35,000  Level FlightAware ADS-B
Thu 07:51:17 PM 27.8280 -80.3790 244° Southwest 322 371 35,000  Level FlightAware ADS-B
Thu 07:52:07 PM 27.8000 -80.4450 244° Southwest 326 375 35,000  Level FlightAware ADS-B
Thu 07:52:47 PM 27.7790 -80.4970 245° Southwest 326 375 35,000  Level FlightAware ADS-B
Thu 07:53:32 PM 27.6690 -80.4860 175° South 376 433 35,000  Level FlightAware ADS-B
Thu 07:54:07 PM 27.6200 -80.4530 149° Southeast 379 436 35,000  Level FlightAware ADS-B
Thu 07:54:57 PM 27.5570 -80.4070 147° Southeast 379 436 35,000 -400 Level FlightAware ADS-B
Thu 07:55:37 PM 27.6530 -80.2660 52° Northeast 443 510 34,400 -450 Descending FlightAware ADS-B
Thu 07:56:17 PM 27.7110 -80.2250 32° Northeast 443 510 34,400  Level FlightAware ADS-B
Thu 07:56:57 PM 27.7700 -80.1830 32° Northeast 443 510 34,400  Level FlightAware ADS-B
Thu 07:57:37 PM 27.8290 -80.1410 32° Northeast 443 510 34,400 -1,600 Level FlightAware ADS-B
Thu 07:58:12 PM 27.9280 -80.3200 302° West 32,000 -2,880 Descending FlightAware ADS-B
Thu 07:58:27 PM 27.9430 -80.3330 323° Northwest 367 422 32,000  Level FlightAware ADS-B
Thu 07:59:02 PM 27.9840 -80.3740 319° Northwest 367 422 32,000  Level FlightAware ADS-B
Thu 07:59:42 PM 28.0270 -80.4180 318° Northwest 367 422 32,000  Level FlightAware ADS-B
Thu 08:00:32 PM 28.0800 -80.4730 318° Northwest 367 422 32,000 -71 Level FlightAware ADS-B
Thu 08:01:07 PM 27.8817 -80.5472 32° Northeast 256 295 31,900  Descending Miami Center
Thu 08:02:37 PM 27.7530 -80.5160 187° South 339 390 32,000 46 Climbing FlightAware ADS-B
Thu 08:03:17 PM 27.6960 -80.4950 162° South 339 390 32,000  Level FlightAware ADS-B
Thu 08:03:57 PM 27.6450 -80.4770 163° South 339 390 32,000  Level FlightAware ADS-B
Thu 08:04:57 PM 27.6250 -80.3360 99° East 424 488 32,000  Level FlightAware ADS-B
Thu 08:05:12 PM 27.6470 -80.3080 48° Northeast 428 493 32,000  Level FlightAware ADS-B
Thu 08:05:52 PM 27.7100 -80.2640 32° Northeast 415 478 32,000 -109 Level FlightAware ADS-B
Thu 08:06:07 PM 27.7358 -80.2869 28° Northeast 248 285 31,900  Descending Miami Center
Thu 08:07:07 PM 27.8392 -80.3253 28° Northeast 267 307 32,000 27 Climbing Miami Center
Thu 08:08:17 PM 27.9730 -80.3290 348° North 32,000  Level FlightAware ADS-B
Thu 08:09:52 PM 28.1460 -80.2270 27° Northeast 425 489 32,000  Level FlightAware ADS-B
Thu 08:10:47 PM 28.2390 -80.1720 28° Northeast 426 490 32,000  Level FlightAware ADS-B
Thu 08:11:27 PM 28.3090 -80.1300 28° Northeast 425 489 32,000  Level FlightAware ADS-B
Thu 08:12:07 PM 28.3680 -80.0940 28° Northeast 425 489 32,000  Level FlightAware ADS-B
Thu 08:12:47 PM 28.4270 -80.0580 28° Northeast 425 489 32,000  Level FlightAware ADS-B
Thu 08:13:07 PM 28.4620 -80.0020 55° Northeast 428 493 32,000  Level FlightAware ADS-B
Thu 08:14:32 PM 28.4220 -79.8440 106° East 387 445 32,000  Level FlightAware ADS-B
Thu 08:15:42 PM 28.3060 -79.8000 162° South 384 442 32,000  Level FlightAware ADS-B
Thu 08:16:52 PM 28.1850 -79.7580 163° South 384 442 32,000  Level FlightAware ADS-B
Thu 08:17:47 PM 28.0930 -79.7370 169° South 378 435 32,000  Level FlightAware ADS-B
Thu 08:18:07 PM 28.0608 -79.7436 180° South 374 430 32,000  Level Miami Center
Thu 08:19:12 PM 27.9450 -79.7430 182° South 374 430 32,000  Level FlightAware ADS-B
Thu 08:20:07 PM 27.8480 -79.7420 179° South 372 428 32,000  Level FlightAware ADS-B
Thu 08:20:52 PM 27.7710 -79.7420 180° South 367 422 32,000  Level FlightAware ADS-B
Thu 08:21:32 PM 27.7030 -79.7410 179° South 368 423 32,000  Level FlightAware ADS-B
Thu 08:22:07 PM 27.6440 -79.7410 180° South 372 428 32,000 -660 Level FlightAware ADS-B
Thu 08:23:12 PM 27.5340 -79.7400 180° South 358 412 30,900 -1,200 Descending FlightAware ADS-B
Thu 08:24:22 PM 27.4180 -79.7440 182° South 342 394 29,300 -1,086 Descending FlightAware ADS-B
Thu 08:24:57 PM 27.3600 -79.7510 186° South 337 388 29,000 -1,950 Descending FlightAware ADS-B
Thu 08:25:42 PM 27.2860 -79.7610 187° South 353 406 26,700 -2,467 Descending FlightAware ADS-B
Thu 08:26:27 PM 27.2110 -79.7710 187° South 354 407 25,300 -1,774 Descending FlightAware ADS-B
Thu 08:27:37 PM 27.0990 -79.7850 186° South 343 395 23,300 -1,671 Descending FlightAware ADS-B
Thu 08:28:47 PM 26.9910 -79.7990 187° South 326 375 21,400 -1,629 Descending FlightAware ADS-B
Thu 08:29:57 PM 26.8840 -79.8130 187° South 327 376 19,500 -1,657 Descending FlightAware ADS-B
Thu 08:30:32 PM 26.8310 -79.8200 187° South 325 374 18,500 -1,768 Descending FlightAware ADS-B
Thu 08:31:32 PM 26.7350 -79.8320 186° South 321 369 16,700 -1,371 Descending FlightAware ADS-B
Thu 08:32:17 PM 26.6710 -79.8400 186° South 323 372 16,100 -494 Descending FlightAware ADS-B
Thu 08:32:57 PM 26.6100 -79.8480 187° South 324 373 16,000 -75 Descending FlightAware ADS-B
Thu 08:33:37 PM 26.5500 -79.8560 187° South 323 372 16,000  Level FlightAware ADS-B
Thu 08:34:22 PM 26.4800 -79.8640 186° South 328 377 16,000 -141 Level FlightAware ADS-B
Thu 08:35:02 PM 26.4150 -79.8730 187° South 353 406 15,800 -343 Descending FlightAware ADS-B
Thu 08:35:32 PM 26.3720 -79.8900 200° South 328 377 15,600 -429 Descending FlightAware ADS-B
Thu 08:36:12 PM 26.3270 -79.9360 223° Southwest 318 366 15,300 -450 Descending FlightAware ADS-B
Thu 08:36:52 PM 26.2840 -79.9810 223° Southwest 320 368 15,000 -514 Descending FlightAware ADS-B
Thu 08:37:22 PM 26.2480 -80.0130 219° Southwest 335 386 14,700 -600 Descending FlightAware ADS-B
Thu 08:38:02 PM 26.1870 -80.0320 196° South 333 383 14,300 -635 Descending FlightAware ADS-B
Thu 08:38:47 PM 26.1180 -80.0520 195° South 332 382 13,800 -1,129 Descending FlightAware ADS-B
Thu 08:39:27 PM 26.0580 -80.0690 194° South 333 383 12,700 -1,835 Descending FlightAware ADS-B
Thu 08:40:12 PM 25.9910 -80.0870 194° South 320 368 11,200 -1,629 Descending FlightAware ADS-B
Thu 08:40:37 PM 25.9590 -80.1060 208° Southwest 287 330 10,800 -1,114 Descending FlightAware ADS-B
Thu 08:41:22 PM 25.9270 -80.1590 236° Southwest 261 300 9,900 -1,371 Descending FlightAware ADS-B
Thu 08:41:47 PM 25.9140 -80.1880 244° Southwest 254 292 9,200 -1,745 Descending FlightAware ADS-B
Thu 08:42:17 PM 25.9010 -80.2260 249° West 253 291 8,300 -1,636 Descending FlightAware ADS-B
Thu 08:42:42 PM 25.8920 -80.2550 251° West 249 287 7,700 -1,527 Descending FlightAware ADS-B
Thu 08:43:12 PM 25.8890 -80.2930 265° West 252 290 6,900 -1,500 Descending FlightAware ADS-B
Thu 08:43:42 PM 25.9030 -80.3300 293° West 255 293 6,200 -1,091 Descending FlightAware ADS-B
Thu 08:44:07 PM 25.9130 -80.3590 291° West 244 281 5,900 -218 Descending FlightAware ADS-B
Thu 08:44:37 PM 25.9270 -80.3920 295° West 221 254 6,000  Climbing FlightAware ADS-B
Thu 08:45:02 PM 25.9360 -80.4180 291° West 216 249 5,900 -750 Descending FlightAware ADS-B
Thu 08:45:17 PM 25.9400 -80.4340 286° West 215 247 5,500 -1,333 Descending FlightAware ADS-B
Thu 08:45:47 PM 25.9250 -80.4590 236° Southwest 206 237 4,900 -1,200 Descending FlightAware ADS-B
Thu 08:45:57 PM 25.9160 -80.4610 191° South 198 228 4,700 -1,200 Descending FlightAware ADS-B
Thu 08:46:27 PM 25.8890 -80.4450 152° Southeast 214 246 4,100 -1,000 Descending FlightAware ADS-B
Thu 08:46:57 PM 25.8660 -80.4270 145° Southeast 194 223 3,700 -800 Descending FlightAware ADS-B
Thu 08:47:12 PM 25.8570 -80.4160 132° Southeast 188 216 3,500 -1,200 Descending FlightAware ADS-B
Thu 08:47:37 PM 25.8470 -80.3950 118° Southeast 173 199 2,900 -1,350 Descending FlightAware ADS-B
Thu 08:47:52 PM 25.8410 -80.3840 121° Southeast 163 188 2,600 -1,467 Descending FlightAware ADS-B
Thu 08:48:22 PM 25.8300 -80.3630 120° Southeast 159 183 1,800 -1,700 Descending FlightAware ADS-B
Thu 08:48:52 PM 25.8190 -80.3420 120° Southeast 160 184 900 -1,400 Descending FlightAware ADS-B
Thu 08:49:22 PM 25.8090 -80.3210 118° Southeast 146 168 400 -873 Descending FlightAware ADS-B
Thu 08:49:47 PM 25.8000 -80.3050 122° Southeast 141 162 100 -720 Descending FlightAware ADS-B

Login

Don't have an account? Register now (free) for customized features, flight alerts, and more!